createdAt,value
2023-03-06T00:00:57.548Z,98179.00
2023-03-06T00:03:28.028Z,98175.80
2023-03-06T00:05:57.684Z,98168.00
2023-03-06T00:08:27.120Z,98172.40
2023-03-06T00:10:56.269Z,98171.00
2023-03-06T00:13:25.098Z,98167.40
2023-03-06T00:15:53.476Z,98166.80
2023-03-06T00:18:21.506Z,98162.60
2023-03-06T00:20:49.411Z,98160.00
2023-03-06T00:23:17.443Z,98163.40
2023-03-06T00:25:45.807Z,98156.60
2023-03-06T00:28:15.871Z,98163.00
2023-03-06T00:30:44.598Z,98159.40
2023-03-06T00:33:12.548Z,98156.20
2023-03-06T00:35:41.120Z,98160.20
2023-03-06T00:38:11.918Z,98157.60
2023-03-06T00:40:39.927Z,98158.20
2023-03-06T00:43:08.250Z,98168.20
2023-03-06T00:45:36.741Z,98158.80
2023-03-06T00:48:05.401Z,98156.60
2023-03-06T00:50:35.252Z,98158.80
2023-03-06T00:53:03.559Z,98148.40
2023-03-06T00:55:33.549Z,98157.40
2023-03-06T00:58:01.759Z,98146.80
2023-03-06T01:00:30.017Z,98151.60
2023-03-06T01:02:58.024Z,98155.00
2023-03-06T01:05:26.810Z,98149.00
2023-03-06T01:07:54.860Z,98153.40
2023-03-06T01:10:22.849Z,98150.60
2023-03-06T01:12:50.774Z,98146.20
2023-03-06T01:15:20.471Z,98144.80
2023-03-06T01:17:48.586Z,98142.80
2023-03-06T01:20:16.720Z,98141.20
2023-03-06T01:22:44.965Z,98145.20
2023-03-06T01:25:12.826Z,98144.20
2023-03-06T01:27:40.724Z,98138.80
2023-03-06T01:30:12.761Z,98136.60
2023-03-06T01:32:40.692Z,98135.80
2023-03-06T01:35:09.633Z,98135.60
2023-03-06T01:37:38.213Z,98135.40
2023-03-06T01:40:08.252Z,98134.80
2023-03-06T01:42:36.632Z,98138.60
2023-03-06T01:45:14.143Z,98132.60
2023-03-06T01:47:42.265Z,98129.80
2023-03-06T01:50:10.680Z,98129.00
2023-03-06T01:52:54.217Z,98140.20
2023-03-06T01:55:29.152Z,98136.60
2023-03-06T01:57:59.327Z,98130.60
2023-03-06T02:00:28.986Z,98137.60
2023-03-06T02:03:05.580Z,98136.40
2023-03-06T02:05:33.919Z,98127.20
2023-03-06T02:08:03.242Z,98124.40
2023-03-06T02:10:31.064Z,98127.60
2023-03-06T02:12:59.206Z,98129.20
2023-03-06T02:15:29.271Z,98126.60
2023-03-06T02:17:57.444Z,98127.00
2023-03-06T02:20:49.330Z,98128.20
2023-03-06T02:23:37.926Z,98117.80
2023-03-06T02:26:05.702Z,98119.20
2023-03-06T02:28:33.813Z,98114.60
2023-03-06T02:31:01.661Z,98122.00
2023-03-06T02:33:30.065Z,98118.00
2023-03-06T02:36:03.758Z,98114.60
2023-03-06T02:38:38.375Z,98118.00
2023-03-06T02:41:08.275Z,98111.40
2023-03-06T02:43:38.723Z,98112.80
2023-03-06T02:46:07.305Z,98115.00
2023-03-06T02:48:35.325Z,98121.60
2023-03-06T02:51:03.604Z,98122.20
2023-03-06T02:53:31.789Z,98113.40
2023-03-06T02:56:00.857Z,98113.60
2023-03-06T02:58:29.206Z,98109.80
2023-03-06T03:00:57.439Z,98110.80
2023-03-06T03:03:25.389Z,98115.00
2023-03-06T03:05:53.796Z,98119.20
2023-03-06T03:08:24.717Z,98116.80
2023-03-06T03:10:56.450Z,98118.40
2023-03-06T03:13:25.102Z,98114.00
2023-03-06T03:16:01.349Z,98109.80
2023-03-06T03:18:29.173Z,98103.60
2023-03-06T03:20:57.331Z,98105.00
2023-03-06T03:23:26.175Z,98101.00
2023-03-06T03:26:19.586Z,98108.60
2023-03-06T03:29:06.811Z,98103.20
2023-03-06T03:31:34.737Z,98101.40
2023-03-06T03:34:03.781Z,98096.20
2023-03-06T03:36:34.279Z,98099.40
2023-03-06T03:39:04.173Z,98091.80
2023-03-06T03:41:33.723Z,98100.80
2023-03-06T03:44:04.387Z,98093.60
2023-03-06T03:46:33.235Z,98096.40
2023-03-06T03:49:01.545Z,98095.60
2023-03-06T03:51:29.682Z,98087.60
2023-03-06T03:53:58.395Z,98082.60
2023-03-06T03:56:28.290Z,98089.60
2023-03-06T03:59:01.491Z,98087.80
2023-03-06T04:01:32.951Z,98087.00
2023-03-06T04:04:00.927Z,98083.40
2023-03-06T04:06:29.579Z,98078.40
2023-03-06T04:08:57.950Z,98073.60
2023-03-06T04:11:26.223Z,98070.80
2023-03-06T04:13:54.790Z,98068.80
2023-03-06T04:16:23.405Z,98072.80
2023-03-06T04:18:52.086Z,98071.40
2023-03-06T04:21:21.231Z,98066.00
2023-03-06T04:23:49.252Z,98067.40
2023-03-06T04:26:17.386Z,98067.40
2023-03-06T04:28:45.585Z,98064.60
2023-03-06T04:31:13.903Z,98062.60
2023-03-06T04:33:42.221Z,98051.20
2023-03-06T04:36:20.866Z,98050.80
2023-03-06T04:38:49.991Z,98048.60
2023-03-06T04:41:18.442Z,98054.40
2023-03-06T04:43:46.396Z,98046.00
2023-03-06T04:46:14.383Z,98042.40
2023-03-06T04:48:42.811Z,98054.00
2023-03-06T04:51:12.850Z,98060.20
2023-03-06T04:53:40.757Z,98042.40
2023-03-06T04:56:08.836Z,98046.20
2023-03-06T04:58:36.886Z,98045.20
2023-03-06T05:01:04.976Z,98052.20
2023-03-06T05:03:33.170Z,98047.00
2023-03-06T05:06:01.116Z,98042.60
2023-03-06T05:08:29.980Z,98040.40
2023-03-06T05:11:00.997Z,98043.00
2023-03-06T05:13:28.936Z,98042.40
2023-03-06T05:16:05.297Z,98032.20
2023-03-06T05:18:34.504Z,98036.60
2023-03-06T05:21:02.622Z,98035.20
2023-03-06T05:23:32.244Z,98032.40
2023-03-06T05:26:00.542Z,98025.40
2023-03-06T05:28:28.792Z,98027.00
2023-03-06T05:30:56.749Z,98015.20
2023-03-06T05:33:24.777Z,98026.60
2023-03-06T05:35:52.967Z,98031.40
2023-03-06T05:38:20.944Z,98023.20
2023-03-06T05:40:49.114Z,98025.60
2023-03-06T05:43:16.935Z,98017.40
2023-03-06T05:45:45.081Z,98021.20
2023-03-06T05:48:13.849Z,98016.80
2023-03-06T05:50:41.854Z,98018.40
2023-03-06T05:53:10.514Z,98017.20
2023-03-06T05:55:38.458Z,98008.20
2023-03-06T05:58:06.459Z,98021.60
2023-03-06T06:00:34.513Z,98024.40
2023-03-06T06:03:03.017Z,98021.00
2023-03-06T06:05:30.954Z,98021.40
2023-03-06T06:07:59.159Z,98018.20
2023-03-06T06:10:27.921Z,98025.40
2023-03-06T06:12:56.293Z,98018.60
2023-03-06T06:15:26.110Z,98014.80
2023-03-06T06:17:57.238Z,98009.20
2023-03-06T06:20:25.456Z,98005.60
2023-03-06T06:22:53.777Z,98012.60
2023-03-06T06:25:21.669Z,98014.80
2023-03-06T06:27:49.501Z,98011.20
2023-03-06T06:30:18.423Z,98013.80
2023-03-06T06:32:46.290Z,98010.20
2023-03-06T06:35:14.605Z,98011.20
2023-03-06T06:37:42.779Z,98007.00
2023-03-06T06:40:11.950Z,98004.40
2023-03-06T06:42:40.500Z,98010.00
2023-03-06T06:45:11.761Z,98003.80
2023-03-06T06:47:43.643Z,98005.00
2023-03-06T06:50:13.304Z,98001.60
2023-03-06T06:52:41.481Z,97997.40
2023-03-06T06:55:10.915Z,97993.80
2023-03-06T06:57:40.687Z,97999.40
2023-03-06T07:00:11.775Z,98000.60
2023-03-06T07:02:40.456Z,97996.80
2023-03-06T07:05:09.771Z,97996.00
2023-03-06T07:07:38.210Z,97999.60
2023-03-06T07:10:12.225Z,97994.20
2023-03-06T07:12:40.708Z,97998.60
2023-03-06T07:15:11.064Z,97997.00
2023-03-06T07:17:39.037Z,97989.60
2023-03-06T07:20:08.933Z,97989.80
2023-03-06T07:22:48.692Z,97985.00
2023-03-06T07:25:19.295Z,97986.60
2023-03-06T07:27:53.328Z,97986.20
2023-03-06T07:30:23.426Z,97984.60
2023-03-06T07:32:58.495Z,97978.60
2023-03-06T07:35:26.880Z,97986.60
2023-03-06T07:37:54.878Z,97981.80
2023-03-06T07:40:23.127Z,97981.00
2023-03-06T07:43:09.185Z,97978.40
2023-03-06T07:45:43.933Z,97974.00
2023-03-06T07:48:11.887Z,97972.20
2023-03-06T07:50:40.143Z,97968.80
2023-03-06T07:53:08.855Z,97970.60
2023-03-06T07:55:41.497Z,97969.40
2023-03-06T07:58:09.256Z,97970.80
2023-03-06T08:00:37.600Z,97967.60
2023-03-06T08:03:05.847Z,97969.60
2023-03-06T08:05:33.787Z,97963.60
2023-03-06T08:08:01.610Z,97961.80
2023-03-06T08:10:29.515Z,97953.20
2023-03-06T08:12:57.482Z,97949.00
2023-03-06T08:15:25.306Z,97949.40
2023-03-06T08:17:53.851Z,97947.60
2023-03-06T08:20:21.835Z,97943.80
2023-03-06T08:22:49.911Z,97947.00
2023-03-06T08:25:18.175Z,97946.60
2023-03-06T08:27:47.662Z,97951.40
2023-03-06T08:30:16.477Z,97951.20
2023-03-06T08:32:44.912Z,97945.00
2023-03-06T08:35:12.954Z,97945.80
2023-03-06T08:37:40.993Z,97945.60
2023-03-06T08:40:11.801Z,97941.60
2023-03-06T08:42:39.870Z,97940.80
2023-03-06T08:45:09.125Z,97940.20
2023-03-06T08:47:36.830Z,97939.20
2023-03-06T08:50:05.490Z,97938.60
2023-03-06T08:52:33.417Z,97937.80
2023-03-06T08:55:03.688Z,97941.00
2023-03-06T08:57:31.841Z,97937.40
2023-03-06T08:59:59.777Z,97935.60
2023-03-06T09:02:27.714Z,97928.20
2023-03-06T09:04:55.698Z,97929.00
2023-03-06T09:07:24.411Z,97924.40
2023-03-06T09:09:57.825Z,97926.20
2023-03-06T09:12:26.035Z,97926.20
2023-03-06T09:14:53.985Z,97921.20
2023-03-06T09:17:22.445Z,97921.60
2023-03-06T09:19:51.092Z,97921.40
2023-03-06T09:22:19.141Z,97928.40
2023-03-06T09:24:47.162Z,97919.80
2023-03-06T09:27:15.373Z,97917.40
2023-03-06T09:29:43.858Z,97920.20
2023-03-06T09:32:13.574Z,97919.40
2023-03-06T09:34:42.839Z,97916.00
2023-03-06T09:37:11.613Z,97914.60
2023-03-06T09:39:40.543Z,97906.40
2023-03-06T09:42:09.022Z,97908.80
2023-03-06T09:44:36.931Z,97908.80
2023-03-06T09:47:48.994Z,97905.80
2023-03-06T09:50:22.899Z,97908.00
2023-03-06T09:53:17.257Z,97903.20
2023-03-06T09:56:01.366Z,97901.60
2023-03-06T09:58:30.963Z,97900.80
2023-03-06T10:01:35.220Z,97902.80
2023-03-06T10:04:40.691Z,97902.60
2023-03-06T10:07:24.457Z,97903.80
2023-03-06T10:10:06.544Z,97904.80
2023-03-06T10:12:39.027Z,97906.80
2023-03-06T10:15:19.665Z,97903.60
2023-03-06T10:17:48.190Z,97906.80
2023-03-06T10:20:34.847Z,97906.00
2023-03-06T10:23:12.795Z,97895.60
2023-03-06T10:25:50.721Z,97903.20
2023-03-06T10:28:27.751Z,97901.00
2023-03-06T10:31:29.042Z,97906.80
2023-03-06T10:34:23.032Z,97906.80
2023-03-06T10:36:51.290Z,97904.60
2023-03-06T10:39:21.419Z,97897.20
2023-03-06T10:41:49.704Z,97895.60
2023-03-06T10:44:20.060Z,97896.60
2023-03-06T10:46:51.569Z,97895.40
2023-03-06T10:49:36.706Z,97897.60
2023-03-06T10:52:28.869Z,97896.40
2023-03-06T10:55:36.546Z,97889.60
2023-03-06T10:58:28.093Z,97894.80
2023-03-06T11:01:03.939Z,97887.80
2023-03-06T11:03:31.896Z,97887.40
2023-03-06T11:06:13.557Z,97882.40
2023-03-06T11:08:43.905Z,97887.60
2023-03-06T11:11:16.989Z,97887.40
2023-03-06T11:13:46.437Z,97879.20
2023-03-06T11:16:26.924Z,97883.40
2023-03-06T11:18:58.397Z,97881.60
2023-03-06T11:21:37.208Z,97874.40
2023-03-06T11:24:20.068Z,97874.60
2023-03-06T11:26:59.846Z,97881.20
2023-03-06T11:29:43.286Z,97880.80
2023-03-06T11:32:24.639Z,97881.40
2023-03-06T11:34:59.557Z,97874.80
2023-03-06T11:37:54.523Z,97872.40
2023-03-06T11:40:37.162Z,97872.40
2023-03-06T11:43:30.089Z,97870.60
2023-03-06T11:46:08.403Z,97866.40
2023-03-06T11:48:50.075Z,97866.80
2023-03-06T11:51:23.006Z,97866.20
2023-03-06T11:53:50.932Z,97870.60
2023-03-06T11:56:19.096Z,97866.80
2023-03-06T11:59:16.253Z,97869.40
2023-03-06T12:02:23.900Z,97862.00
2023-03-06T12:05:12.772Z,97863.20
2023-03-06T12:08:05.143Z,97868.00
2023-03-06T12:10:51.879Z,97864.60
2023-03-06T12:13:39.001Z,97854.20
2023-03-06T12:16:42.398Z,97858.60
2023-03-06T12:19:41.986Z,97853.80
2023-03-06T12:22:57.700Z,97848.60
2023-03-06T12:25:41.711Z,97847.60
2023-03-06T12:28:34.909Z,97844.80
2023-03-06T12:31:51.685Z,97843.60
2023-03-06T12:35:22.606Z,97846.20
2023-03-06T12:37:59.415Z,97845.20
2023-03-06T12:40:44.397Z,97839.20
2023-03-06T12:43:46.377Z,97838.00
2023-03-06T12:46:23.511Z,97840.20
2023-03-06T12:49:06.177Z,97852.80
2023-03-06T12:51:34.207Z,97846.60
2023-03-06T12:54:03.339Z,97853.80
2023-03-06T12:56:31.923Z,97848.60
2023-03-06T12:59:02.824Z,97849.60
2023-03-06T13:02:18.110Z,97844.40
2023-03-06T13:05:24.046Z,97846.80
2023-03-06T13:08:26.904Z,97844.60
2023-03-06T13:11:35.741Z,97842.20
2023-03-06T13:14:34.361Z,97845.80
2023-03-06T13:17:39.625Z,97846.60
2023-03-06T13:20:13.535Z,97850.40
2023-03-06T13:22:45.350Z,97847.40
2023-03-06T13:25:19.122Z,97842.20
2023-03-06T13:27:53.130Z,97845.40
2023-03-06T13:30:39.304Z,97841.40
2023-03-06T13:33:22.679Z,97833.00
2023-03-06T13:35:58.481Z,97831.00
2023-03-06T13:38:56.838Z,97828.60
2023-03-06T13:41:25.118Z,97825.60
2023-03-06T13:43:57.372Z,97831.20
2023-03-06T13:46:36.155Z,97825.40
2023-03-06T13:49:13.051Z,97828.40
2023-03-06T13:51:43.437Z,97828.20
2023-03-06T13:54:42.742Z,97819.60
2023-03-06T13:57:35.699Z,97811.60
2023-03-06T14:00:53.271Z,97806.60
2023-03-06T14:03:59.108Z,97802.60
2023-03-06T14:06:37.427Z,97806.20
2023-03-06T14:09:07.528Z,97806.20
2023-03-06T14:11:35.469Z,97799.80
2023-03-06T14:14:03.391Z,97803.40
2023-03-06T14:16:49.019Z,97799.00
2023-03-06T14:22:43.794Z,97800.40
2023-03-06T14:25:30.204Z,97794.20
2023-03-06T14:28:05.701Z,97797.00
2023-03-06T14:30:49.953Z,97793.40
2023-03-06T14:33:37.191Z,97796.60
2023-03-06T14:36:09.772Z,97794.20
2023-03-06T14:38:44.025Z,97791.20
2023-03-06T14:41:14.079Z,97789.00
2023-03-06T14:43:42.420Z,97787.20
2023-03-06T14:46:21.651Z,97792.40
2023-03-06T14:48:49.791Z,97790.20
2023-03-06T14:51:23.105Z,97784.20
2023-03-06T14:53:52.605Z,97783.00
2023-03-06T14:56:23.611Z,97780.60
2023-03-06T14:59:04.817Z,97781.40
2023-03-06T15:01:41.515Z,97783.40
2023-03-06T15:04:24.721Z,97781.80
2023-03-06T15:06:52.875Z,97785.00
2023-03-06T15:09:33.360Z,97790.00
2023-03-06T15:12:02.389Z,97782.60
2023-03-06T15:14:36.088Z,97788.60
2023-03-06T15:17:19.418Z,97800.40
2023-03-06T15:19:58.240Z,97797.00
2023-03-06T15:22:39.769Z,97795.00
2023-03-06T15:25:29.985Z,97805.40
2023-03-06T15:28:03.376Z,97800.60
2023-03-06T15:30:33.739Z,97805.00
2023-03-06T15:33:24.504Z,97804.40
2023-03-06T15:36:02.139Z,97799.80
2023-03-06T15:38:35.546Z,97802.40
2023-03-06T15:41:05.693Z,97798.40
2023-03-06T15:43:42.601Z,97799.20
2023-03-06T15:46:10.796Z,97796.40
2023-03-06T15:48:40.696Z,97794.60
2023-03-06T15:51:11.434Z,97795.40
2023-03-06T15:53:40.611Z,97794.00
2023-03-06T15:56:11.273Z,97794.20
2023-03-06T15:58:40.029Z,97796.60
2023-03-06T16:01:08.268Z,97797.60
2023-03-06T16:03:36.364Z,97798.20
2023-03-06T16:06:04.841Z,97799.60
2023-03-06T16:08:34.263Z,97796.00
2023-03-06T16:11:02.843Z,97800.40
2023-03-06T16:13:31.049Z,97806.60
2023-03-06T16:15:59.087Z,97803.80
2023-03-06T16:18:27.430Z,97810.80
2023-03-06T16:20:55.499Z,97802.20
2023-03-06T16:23:23.507Z,97801.80
2023-03-06T16:25:51.574Z,97794.40
2023-03-06T16:28:19.696Z,97803.80
2023-03-06T16:30:47.869Z,97804.60
2023-03-06T16:33:16.078Z,97809.20
2023-03-06T16:35:46.701Z,97809.20
2023-03-06T16:38:15.767Z,97808.40
2023-03-06T16:40:43.664Z,97811.40
2023-03-06T16:43:13.601Z,97812.60
2023-03-06T16:45:41.992Z,97807.20
2023-03-06T16:48:18.977Z,97807.80
2023-03-06T16:50:47.014Z,97804.80
2023-03-06T16:53:15.638Z,97799.20
2023-03-06T16:55:43.874Z,97803.60
2023-03-06T16:58:12.421Z,97799.40
2023-03-06T17:00:40.983Z,97806.80
2023-03-06T17:03:09.019Z,97808.20
2023-03-06T17:05:38.097Z,97801.40
2023-03-06T17:08:06.107Z,97805.20
2023-03-06T17:10:34.550Z,97803.20
2023-03-06T17:13:03.416Z,97802.40
2023-03-06T17:15:31.857Z,97802.60
2023-03-06T17:17:59.892Z,97808.00
2023-03-06T17:20:28.016Z,97807.80
2023-03-06T17:22:56.549Z,97803.80
2023-03-06T17:25:24.808Z,97805.40
2023-03-06T17:27:52.714Z,97811.80
2023-03-06T17:30:20.716Z,97814.80
2023-03-06T17:32:48.779Z,97812.80
2023-03-06T17:35:16.914Z,97813.40
2023-03-06T17:37:45.047Z,97820.20
2023-03-06T17:40:15.590Z,97819.00
2023-03-06T17:42:43.413Z,97818.60
2023-03-06T17:45:12.157Z,97825.20
2023-03-06T17:47:40.086Z,97824.00
2023-03-06T17:50:09.819Z,97826.20
2023-03-06T17:52:39.027Z,97819.80
2023-03-06T17:55:08.073Z,97818.40
2023-03-06T17:57:35.973Z,97820.20
2023-03-06T18:00:06.007Z,97826.40
2023-03-06T18:02:40.101Z,97823.00
2023-03-06T18:05:09.540Z,97819.00
2023-03-06T18:07:37.922Z,97818.40
2023-03-06T18:10:06.391Z,97813.20
2023-03-06T18:12:34.488Z,97816.00
2023-03-06T18:15:03.979Z,97820.80
2023-03-06T18:17:32.009Z,97817.40
2023-03-06T18:20:00.345Z,97821.40
2023-03-06T18:22:28.367Z,97820.20
2023-03-06T18:24:56.410Z,97813.60
2023-03-06T18:27:24.336Z,97810.80
2023-03-06T18:29:52.678Z,97816.80
2023-03-06T18:32:22.511Z,97810.60
2023-03-06T18:34:50.973Z,97816.60
2023-03-06T18:37:19.148Z,97819.40
2023-03-06T18:39:47.627Z,97813.00
2023-03-06T18:42:15.596Z,97824.40
2023-03-06T18:44:47.808Z,97826.20
2023-03-06T18:47:15.833Z,97821.40
2023-03-06T18:49:46.044Z,97821.80
2023-03-06T18:52:14.837Z,97821.80
2023-03-06T18:54:44.832Z,97820.40
2023-03-06T18:57:13.767Z,97825.60
2023-03-06T18:59:42.723Z,97826.60
2023-03-06T19:02:12.780Z,97820.40
2023-03-06T19:04:41.284Z,97814.80
2023-03-06T19:07:09.578Z,97819.20
2023-03-06T19:09:37.489Z,97816.00
2023-03-06T19:12:06.369Z,97815.40
2023-03-06T19:14:36.492Z,97816.60
2023-03-06T19:17:05.273Z,97815.20
2023-03-06T19:19:33.600Z,97814.60
2023-03-06T19:22:02.049Z,97818.00
2023-03-06T19:24:29.880Z,97816.40
2023-03-06T19:26:58.278Z,97815.00
2023-03-06T19:29:26.857Z,97815.20
2023-03-06T19:31:57.255Z,97816.20
2023-03-06T19:34:25.241Z,97819.80
2023-03-06T19:36:53.561Z,97814.20
2023-03-06T19:39:21.586Z,97814.00
2023-03-06T19:41:49.440Z,97814.60
2023-03-06T19:44:17.719Z,97817.60
2023-03-06T19:46:45.702Z,97807.60
2023-03-06T19:49:16.903Z,97814.00
2023-03-06T19:51:45.223Z,97810.20
2023-03-06T19:54:14.838Z,97813.60
2023-03-06T19:56:42.701Z,97813.00
2023-03-06T19:59:10.886Z,97813.40
2023-03-06T20:01:40.263Z,97807.40
2023-03-06T20:04:08.900Z,97810.40
2023-03-06T20:06:37.747Z,97806.00
2023-03-06T20:09:08.673Z,97804.40
2023-03-06T20:11:36.814Z,97804.60
2023-03-06T20:14:06.884Z,97806.60
2023-03-06T20:16:35.146Z,97808.80
2023-03-06T20:19:04.075Z,97813.60
2023-03-06T20:21:38.231Z,97811.80
2023-03-06T20:24:07.733Z,97805.40
2023-03-06T20:26:37.705Z,97807.60
2023-03-06T20:29:05.939Z,97809.80
2023-03-06T20:31:34.040Z,97807.80
2023-03-06T20:34:02.674Z,97805.00
2023-03-06T20:36:36.250Z,97800.40
2023-03-06T20:39:07.145Z,97799.40
2023-03-06T20:41:35.553Z,97802.60
2023-03-06T20:44:04.758Z,97798.00
2023-03-06T20:46:33.886Z,97797.00
2023-03-06T20:49:02.338Z,97801.80
2023-03-06T20:51:33.339Z,97798.00
2023-03-06T20:54:01.597Z,97800.80
2023-03-06T20:56:32.272Z,97788.60
2023-03-06T20:59:00.509Z,97797.40
2023-03-06T21:01:34.024Z,97801.60
2023-03-06T21:04:02.429Z,97799.00
2023-03-06T21:06:30.982Z,97801.00
2023-03-06T21:08:59.754Z,97797.00
2023-03-06T21:11:28.036Z,97797.20
2023-03-06T21:13:56.346Z,97786.60
2023-03-06T21:16:25.599Z,97789.00
2023-03-06T21:18:58.059Z,97788.00
2023-03-06T21:21:29.756Z,97795.60
2023-03-06T21:23:57.831Z,97800.20
2023-03-06T21:26:28.201Z,97797.80
2023-03-06T21:28:58.114Z,97798.00
2023-03-06T21:31:27.136Z,97795.60
2023-03-06T21:33:55.622Z,97800.40
2023-03-06T21:36:23.377Z,97797.80
2023-03-06T21:38:52.395Z,97796.40
2023-03-06T21:41:26.452Z,97790.40
2023-03-06T21:43:59.682Z,97791.80
2023-03-06T21:46:27.885Z,97798.40
2023-03-06T21:48:56.486Z,97803.00
2023-03-06T21:51:25.529Z,97798.60
2023-03-06T21:53:53.976Z,97797.40
2023-03-06T21:56:25.031Z,97800.00
2023-03-06T21:58:53.129Z,97802.80
2023-03-06T22:01:27.045Z,97804.40
2023-03-06T22:03:55.328Z,97800.60
2023-03-06T22:06:25.652Z,97798.20
2023-03-06T22:08:55.209Z,97798.40
2023-03-06T22:11:24.430Z,97795.80
2023-03-06T22:13:55.856Z,97802.40
2023-03-06T22:16:23.976Z,97800.60
2023-03-06T22:18:52.071Z,97796.40
2023-03-06T22:21:21.343Z,97797.00
2023-03-06T22:23:54.248Z,97799.60
2023-03-06T22:26:22.477Z,97792.20
2023-03-06T22:28:50.384Z,97795.60
2023-03-06T22:31:24.309Z,97798.80
2023-03-06T22:33:56.834Z,97803.80
2023-03-06T22:36:24.771Z,97800.20
2023-03-06T22:38:58.264Z,97799.20
2023-03-06T22:41:26.986Z,97804.00
2023-03-06T22:43:57.182Z,97803.60
2023-03-06T22:46:25.820Z,97807.40
2023-03-06T22:48:56.835Z,97807.20
2023-03-06T22:51:25.076Z,97814.00
2023-03-06T22:53:52.844Z,97806.40
2023-03-06T22:56:22.667Z,97807.80
2023-03-06T22:58:50.641Z,97810.40
2023-03-06T23:01:25.190Z,97806.60
2023-03-06T23:03:56.302Z,97801.60
2023-03-06T23:06:27.374Z,97807.00
2023-03-06T23:09:13.187Z,97809.60
2023-03-06T23:11:59.608Z,97809.60
2023-03-06T23:14:49.785Z,97812.60
2023-03-06T23:17:36.391Z,97809.20
2023-03-06T23:20:23.130Z,97814.20
2023-03-06T23:23:10.551Z,97816.00
2023-03-06T23:25:44.535Z,97821.00
2023-03-06T23:28:12.761Z,97825.00
2023-03-06T23:30:41.360Z,97827.80
2023-03-06T23:33:09.642Z,97832.60
2023-03-06T23:35:39.245Z,97833.80
2023-03-06T23:38:07.710Z,97830.60
2023-03-06T23:40:37.130Z,97837.60
2023-03-06T23:43:05.594Z,97836.80
2023-03-06T23:45:33.625Z,97836.60
2023-03-06T23:48:01.430Z,97843.40
2023-03-06T23:50:29.383Z,97845.40
2023-03-06T23:52:57.319Z,97845.80
2023-03-06T23:55:25.430Z,97847.40
2023-03-06T23:57:53.579Z,97851.40
